Time;durP1;ratioP1;P1;durP2;ratioP2;P2;SDS_P1;SDS_P2;PMS_P1;PMS_P2;Temp;Humidity;BMP_temperature;BMP_pressure;BME280_temperature;BME280_humidity;BME280_pressure;Samples;Min_cycle;Max_cycle;Signal;HPM_P1;HPM_P2
2021/12/13 00:00:46;;;;;;;77.82;31.05;;;10.30;99.90;;;;;;5092604;28;20561;-72
2021/12/13 00:03:40;;;;;;;68.85;26.92;;;10.30;99.90;;;;;;5090037;28;20365;-72
2021/12/13 00:06:10;;;;;;;71.25;27.23;;;10.30;99.90;;;;;;5091768;28;20059;-72
2021/12/13 00:08:41;;;;;;;69.90;27.00;;;10.20;99.90;;;;;;5089532;28;20174;-72
2021/12/13 00:11:17;;;;;;;60.90;26.58;;;10.20;99.90;;;;;;5087382;28;20039;-72
2021/12/13 00:13:53;;;;;;;66.25;25.67;;;10.20;99.90;;;;;;5115392;27;20046;-72
2021/12/13 00:16:25;;;;;;;70.28;26.33;;;10.20;99.90;;;;;;5135013;27;20406;-72
2021/12/13 00:18:57;;;;;;;64.50;27.63;;;10.20;99.90;;;;;;5135546;27;20502;-72
2021/12/13 00:21:35;;;;;;;63.87;25.63;;;10.20;99.90;;;;;;5135635;27;20525;-72
2021/12/13 00:24:13;;;;;;;64.32;26.02;;;10.20;99.90;;;;;;5135195;27;20050;-72
2021/12/13 00:26:48;;;;;;;62.08;26.73;;;10.20;99.90;;;;;;5135311;27;20043;-72
2021/12/13 00:29:23;;;;;;;67.63;28.33;;;10.20;99.90;;;;;;5135249;27;20077;-72
2021/12/13 00:31:58;;;;;;;69.00;28.50;;;10.20;99.90;;;;;;5134790;27;20081;-73
2021/12/13 00:34:33;;;;;;;67.75;27.42;;;10.30;99.90;;;;;;5135244;27;20050;-72
2021/12/13 00:37:16;;;;;;;67.82;28.33;;;10.20;99.90;;;;;;5135009;27;20075;-72
2021/12/13 00:40:04;;;;;;;66.18;27.33;;;10.20;99.90;;;;;;5135192;27;20042;-72
2021/12/13 00:42:35;;;;;;;63.20;28.20;;;10.20;99.90;;;;;;5135028;27;20031;-72
2021/12/13 00:45:08;;;;;;;58.85;26.63;;;10.30;99.90;;;;;;5134964;27;20082;-72
2021/12/13 00:47:35;;;;;;;64.30;26.55;;;10.20;99.90;;;;;;5135145;27;20038;-72
2021/12/13 00:50:11;;;;;;;65.57;27.42;;;10.30;99.90;;;;;;5136191;27;20050;-72
2021/12/13 00:52:39;;;;;;;58.35;26.23;;;10.20;99.90;;;;;;5139115;27;20525;-72
2021/12/13 00:55:27;;;;;;;58.28;25.42;;;10.30;99.90;;;;;;5134807;27;20043;-72
2021/12/13 00:58:09;;;;;;;63.17;26.60;;;10.30;99.90;;;;;;5134792;27;20491;-72
2021/12/13 01:00:48;;;;;;;55.03;25.70;;;10.20;99.90;;;;;;5136092;27;20110;-72
2021/12/13 01:03:33;;;;;;;61.67;26.95;;;10.30;99.90;;;;;;5134350;27;20035;-72
2021/12/13 01:06:36;;;;;;;45.92;24.67;;;10.20;99.90;;;;;;5117364;27;20530;-72
2021/12/13 01:09:23;;;;;;;53.80;25.67;;;10.30;99.90;;;;;;5135675;27;20118;-72
2021/12/13 01:11:51;;;;;;;53.13;25.27;;;10.20;99.90;;;;;;5135156;27;20436;-72
2021/12/13 01:14:42;;;;;;;61.03;26.88;;;10.30;99.90;;;;;;5135254;27;20035;-72
2021/12/13 01:17:27;;;;;;;52.80;25.20;;;10.30;99.90;;;;;;5135250;27;20122;-72
2021/12/13 01:20:08;;;;;;;50.35;24.40;;;10.30;99.90;;;;;;5135243;27;20098;-72
2021/12/13 01:22:56;;;;;;;49.45;24.92;;;10.30;99.90;;;;;;5133171;27;20035;-72
2021/12/13 01:25:39;;;;;;;48.38;23.73;;;10.30;99.90;;;;;;5133513;27;20043;-72
2021/12/13 01:28:24;;;;;;;56.15;24.60;;;10.20;99.90;;;;;;5134767;27;20049;-73
2021/12/13 01:31:00;;;;;;;46.20;22.13;;;10.30;99.90;;;;;;5134680;27;20543;-73
2021/12/13 01:33:28;;;;;;;50.80;23.55;;;10.30;99.90;;;;;;5134269;27;20035;-73
2021/12/13 01:36:00;;;;;;;48.08;23.00;;;10.30;99.90;;;;;;5134606;27;20096;-73
2021/12/13 01:38:41;;;;;;;51.67;23.02;;;10.30;99.90;;;;;;5133674;27;20122;-72
2021/12/13 01:41:15;;;;;;;53.65;23.55;;;10.30;99.90;;;;;;5133465;27;20372;-72
2021/12/13 01:43:45;;;;;;;48.35;22.80;;;10.30;99.90;;;;;;5132814;27;20035;-72
2021/12/13 01:46:11;;;;;;;45.40;22.02;;;10.30;99.90;;;;;;5134226;27;20045;-72
2021/12/13 01:48:41;;;;;;;43.30;21.83;;;10.30;99.90;;;;;;5133178;27;20126;-72
2021/12/13 01:51:11;;;;;;;42.25;20.23;;;10.30;99.90;;;;;;5133278;27;20081;-72
2021/12/13 01:54:00;;;;;;;42.83;19.85;;;10.30;99.90;;;;;;5133193;27;20087;-72
2021/12/13 01:56:46;;;;;;;39.47;19.33;;;10.30;99.90;;;;;;5133143;27;20050;-72
2021/12/13 02:02:31;;;;;;;37.78;19.38;;;10.30;99.90;;;;;;5125429;27;20035;-72
2021/12/13 02:05:13;;;;;;;36.55;17.88;;;10.30;99.90;;;;;;5131096;27;20059;-72
2021/12/13 02:07:57;;;;;;;33.22;16.25;;;10.30;99.90;;;;;;5133560;27;20461;-72
2021/12/13 02:10:30;;;;;;;34.65;17.60;;;10.30;99.90;;;;;;5133304;27;20043;-72
2021/12/13 02:13:03;;;;;;;28.90;16.98;;;10.30;99.90;;;;;;5133223;27;20046;-72
2021/12/13 02:18:24;;;;;;;32.50;16.88;;;10.30;99.90;;;;;;5134658;27;20043;-72
2021/12/13 02:21:03;;;;;;;29.48;17.15;;;10.30;99.90;;;;;;5133266;27;20031;-72
2021/12/13 02:23:30;;;;;;;28.52;16.92;;;10.30;99.90;;;;;;5133083;27;20403;-72
2021/12/13 02:25:57;;;;;;;29.83;16.63;;;10.30;99.90;;;;;;5134423;27;20039;-72
2021/12/13 02:28:29;;;;;;;32.03;17.58;;;10.30;99.90;;;;;;5133058;27;20122;-72
2021/12/13 02:30:55;;;;;;;29.70;17.75;;;10.30;99.90;;;;;;5133390;27;20043;-72
2021/12/13 02:34:02;;;;;;;32.72;18.15;;;10.30;99.90;;;;;;5132868;27;20076;-72
2021/12/13 02:36:40;;;;;;;34.40;18.23;;;10.30;99.90;;;;;;5073923;28;20453;-72
2021/12/13 02:39:15;;;;;;;35.55;19.75;;;10.30;99.90;;;;;;5125058;27;20473;-72
2021/12/13 02:41:44;;;;;;;40.63;19.50;;;10.30;99.90;;;;;;5132797;27;20043;-72
2021/12/13 02:44:14;;;;;;;39.50;20.10;;;10.30;99.90;;;;;;5132864;27;20039;-72
2021/12/13 02:46:40;;;;;;;42.92;20.92;;;10.30;99.90;;;;;;5132698;27;20042;-72
2021/12/13 02:49:11;;;;;;;39.95;20.13;;;10.30;99.90;;;;;;5132719;27;20099;-72
2021/12/13 02:51:54;;;;;;;42.10;20.88;;;10.30;99.90;;;;;;5132599;27;20538;-72
2021/12/13 02:54:27;;;;;;;37.03;19.08;;;10.30;99.90;;;;;;5132886;27;20046;-72
2021/12/13 02:57:06;;;;;;;40.95;20.55;;;10.30;99.90;;;;;;5132487;27;20496;-72
2021/12/13 02:59:35;;;;;;;38.53;20.05;;;10.30;99.90;;;;;;5132554;27;20495;-72
2021/12/13 03:02:21;;;;;;;33.80;19.42;;;10.30;99.90;;;;;;5134196;27;20035;-73
2021/12/13 03:04:48;;;;;;;39.55;20.17;;;10.30;99.90;;;;;;5133906;27;20038;-72
2021/12/13 03:07:20;;;;;;;41.72;19.67;;;10.30;99.90;;;;;;5133639;27;20042;-73
2021/12/13 03:09:48;;;;;;;35.20;18.55;;;10.30;99.90;;;;;;5132457;27;20479;-72
2021/12/13 03:12:16;;;;;;;33.03;18.98;;;10.30;99.90;;;;;;5133257;27;20500;-72
2021/12/13 03:14:49;;;;;;;33.80;18.92;;;10.30;99.90;;;;;;5133504;27;20032;-72
2021/12/13 03:17:21;;;;;;;31.02;17.92;;;10.30;99.90;;;;;;5133508;27;20039;-72
2021/12/13 03:20:24;;;;;;;32.72;16.95;;;10.30;99.90;;;;;;5133416;27;20552;-72
2021/12/13 03:23:05;;;;;;;35.75;18.02;;;10.30;99.90;;;;;;5131748;27;20064;-73
2021/12/13 03:26:02;;;;;;;37.95;17.50;;;10.30;99.90;;;;;;5132023;27;20050;-72
2021/12/13 03:28:49;;;;;;;28.10;15.27;;;10.30;99.90;;;;;;5118244;27;20047;-73
2021/12/13 03:31:36;;;;;;;33.40;17.73;;;10.30;99.90;;;;;;5133457;27;20039;-72
2021/12/13 03:34:23;;;;;;;32.50;15.52;;;10.20;99.90;;;;;;5114902;27;20035;-73
2021/12/13 03:36:57;;;;;;;28.00;13.77;;;10.20;99.90;;;;;;5133317;27;20102;-73
2021/12/13 03:39:38;;;;;;;26.52;14.85;;;10.20;99.90;;;;;;5133324;27;20527;-73
2021/12/13 03:42:08;;;;;;;27.13;13.23;;;10.20;99.90;;;;;;5114645;27;20066;-73
2021/12/13 03:44:43;;;;;;;25.25;13.30;;;10.20;99.90;;;;;;5133051;27;20042;-73
2021/12/13 03:47:16;;;;;;;19.38;12.27;;;10.10;99.90;;;;;;5132078;27;20478;-73
2021/12/13 03:49:48;;;;;;;19.85;12.13;;;10.10;99.90;;;;;;5132811;27;20418;-73
2021/12/13 03:52:17;;;;;;;22.23;10.93;;;10.10;99.90;;;;;;5132786;27;20031;-73
2021/12/13 03:54:44;;;;;;;22.65;10.13;;;10.10;99.90;;;;;;5132784;27;20163;-73
2021/12/13 03:57:11;;;;;;;19.92;10.52;;;10.10;99.90;;;;;;5131448;27;20083;-73
2021/12/13 03:59:40;;;;;;;18.45;10.02;;;10.10;99.90;;;;;;5132840;27;20062;-73
2021/12/13 04:02:11;;;;;;;24.55;10.38;;;10.00;99.90;;;;;;5132694;27;20039;-73
2021/12/13 04:04:49;;;;;;;23.95;10.23;;;10.00;99.90;;;;;;5132996;27;20035;-73
2021/12/13 04:07:25;;;;;;;17.73;9.07;;;10.00;99.90;;;;;;5131666;27;20138;-73
2021/12/13 04:09:55;;;;;;;15.73;9.70;;;10.00;99.90;;;;;;5132697;27;20110;-73
2021/12/13 04:12:27;;;;;;;17.08;9.65;;;10.00;99.90;;;;;;5131125;27;20040;-73
2021/12/13 04:15:00;;;;;;;14.20;8.43;;;10.00;99.90;;;;;;5131611;28;20031;-73
2021/12/13 04:17:59;;;;;;;18.38;9.27;;;9.90;99.90;;;;;;5131567;28;20027;-73
2021/12/13 04:20:30;;;;;;;17.40;8.70;;;9.90;99.90;;;;;;5131271;28;20088;-72
2021/12/13 04:23:04;;;;;;;16.52;9.07;;;9.90;99.90;;;;;;5131253;28;20463;-73
2021/12/13 04:25:35;;;;;;;16.98;9.38;;;9.80;99.90;;;;;;5132608;27;20042;-72
2021/12/13 04:28:30;;;;;;;18.33;9.82;;;9.90;99.90;;;;;;5132614;27;20109;-73
2021/12/13 04:30:59;;;;;;;18.02;9.80;;;9.80;99.90;;;;;;5130291;28;20047;-73
2021/12/13 04:33:35;;;;;;;26.90;10.23;;;9.80;99.90;;;;;;5130859;28;20053;-73
2021/12/13 04:36:10;;;;;;;17.23;9.77;;;9.80;99.90;;;;;;5131113;28;20071;-73
2021/12/13 04:38:47;;;;;;;17.75;10.07;;;9.80;99.90;;;;;;5131228;27;20510;-73
2021/12/13 04:41:22;;;;;;;18.60;9.25;;;9.80;99.90;;;;;;5132409;27;20047;-73
2021/12/13 04:43:48;;;;;;;18.88;9.75;;;9.80;99.90;;;;;;5130911;28;20092;-73
2021/12/13 04:46:17;;;;;;;15.63;9.25;;;9.80;99.90;;;;;;5131075;28;20039;-73
2021/12/13 04:48:46;;;;;;;18.05;9.38;;;9.80;99.90;;;;;;5132478;27;20391;-73
2021/12/13 04:51:16;;;;;;;12.80;8.98;;;9.70;99.90;;;;;;5131056;28;20049;-73
2021/12/13 04:53:46;;;;;;;16.27;9.50;;;9.70;99.90;;;;;;5130750;28;20035;-73
2021/12/13 04:56:17;;;;;;;14.80;8.98;;;9.70;99.90;;;;;;5113633;28;20043;-73
2021/12/13 04:58:46;;;;;;;13.43;8.35;;;9.70;99.90;;;;;;5113944;28;20113;-73
2021/12/13 05:01:13;;;;;;;16.27;8.98;;;9.60;99.90;;;;;;5132804;27;20395;-73
2021/12/13 05:03:43;;;;;;;14.55;9.05;;;9.70;99.90;;;;;;5134843;27;20655;-73
2021/12/13 05:06:14;;;;;;;16.02;8.90;;;9.60;99.90;;;;;;5134551;27;20130;-73
2021/12/13 05:08:43;;;;;;;16.90;9.45;;;9.60;99.90;;;;;;5135004;27;20047;-72
2021/12/13 05:11:09;;;;;;;25.63;10.18;;;9.60;99.90;;;;;;5134574;27;20039;-72
2021/12/13 05:13:52;;;;;;;14.02;8.75;;;9.60;99.90;;;;;;5140246;27;20042;-73
2021/12/13 05:16:45;;;;;;;15.95;9.98;;;9.60;99.90;;;;;;5135572;27;20040;-73
2021/12/13 05:19:14;;;;;;;17.85;9.70;;;9.60;99.90;;;;;;5117063;27;20473;-73
2021/12/13 05:21:49;;;;;;;16.55;9.88;;;9.60;99.90;;;;;;5134484;27;20479;-72
2021/12/13 05:24:19;;;;;;;13.85;9.00;;;9.60;99.90;;;;;;5134471;27;20027;-73
2021/12/13 05:26:56;;;;;;;16.40;10.13;;;9.60;99.90;;;;;;5134436;27;20403;-73
2021/12/13 05:29:26;;;;;;;19.50;10.38;;;9.60;99.90;;;;;;5134242;27;20043;-73
2021/12/13 05:31:56;;;;;;;17.45;10.65;;;9.60;99.90;;;;;;5135219;27;20414;-73
2021/12/13 05:34:31;;;;;;;22.60;11.15;;;9.60;99.90;;;;;;5134182;27;20043;-73
2021/12/13 05:37:00;;;;;;;19.80;11.68;;;9.60;99.90;;;;;;5133928;27;20039;-73
2021/12/13 05:39:26;;;;;;;21.08;11.82;;;9.60;99.90;;;;;;5117053;27;20043;-72
2021/12/13 05:42:08;;;;;;;24.00;11.85;;;9.60;99.90;;;;;;5133673;27;20035;-73
2021/12/13 05:44:40;;;;;;;20.60;12.27;;;9.60;99.90;;;;;;5134002;27;20042;-73
2021/12/13 05:47:21;;;;;;;22.90;12.98;;;9.60;99.90;;;;;;5135095;27;20038;-73
2021/12/13 05:49:47;;;;;;;20.52;13.25;;;9.60;99.90;;;;;;5133809;27;20043;-73
2021/12/13 05:52:30;;;;;;;21.83;12.23;;;9.70;99.90;;;;;;5133439;27;20095;-73
2021/12/13 05:55:00;;;;;;;22.33;13.52;;;9.70;99.90;;;;;;5133986;27;20113;-73
2021/12/13 05:57:34;;;;;;;27.80;13.82;;;9.60;99.90;;;;;;5133777;27;20437;-73
2021/12/13 06:00:08;;;;;;;22.77;14.75;;;9.60;99.90;;;;;;5133578;27;20035;-73
2021/12/13 06:02:39;;;;;;;26.90;14.38;;;9.70;99.90;;;;;;5133093;27;20076;-73
2021/12/13 06:05:35;;;;;;;27.25;14.75;;;9.60;99.90;;;;;;5116374;27;20121;-73
2021/12/13 06:08:08;;;;;;;27.83;15.02;;;9.60;99.90;;;;;;5116201;27;20039;-73
2021/12/13 06:10:59;;;;;;;27.65;16.27;;;9.60;99.90;;;;;;5133342;27;20057;-73
2021/12/13 06:13:43;;;;;;;21.30;14.68;;;9.60;99.90;;;;;;5132933;27;20054;-73
2021/12/13 06:16:12;;;;;;;28.55;16.65;;;9.60;99.90;;;;;;5132945;27;20046;-73
2021/12/13 06:19:06;;;;;;;29.40;16.88;;;9.60;99.90;;;;;;5133047;27;20035;-73
2021/12/13 06:21:40;;;;;;;33.00;17.38;;;9.60;99.90;;;;;;5128823;27;20537;-73
2021/12/13 06:24:07;;;;;;;36.33;19.17;;;9.60;99.90;;;;;;5132835;27;20113;-73
2021/12/13 06:26:34;;;;;;;34.85;19.13;;;9.50;99.90;;;;;;5115826;27;20498;-73
2021/12/13 06:29:05;;;;;;;32.97;19.20;;;9.60;99.90;;;;;;5132703;27;20043;-73
2021/12/13 06:31:40;;;;;;;36.85;19.52;;;9.60;99.90;;;;;;5132501;27;20038;-73
2021/12/13 06:34:10;;;;;;;30.52;17.90;;;9.60;99.90;;;;;;5132618;27;20031;-73
2021/12/13 06:36:37;;;;;;;43.35;21.20;;;9.50;99.90;;;;;;5132633;27;20075;-73
2021/12/13 06:39:13;;;;;;;35.28;19.92;;;9.50;99.90;;;;;;5132637;27;20074;-73
2021/12/13 06:41:48;;;;;;;41.70;22.00;;;9.50;99.90;;;;;;5133543;27;20463;-73
2021/12/13 06:44:27;;;;;;;40.28;21.13;;;9.50;99.90;;;;;;5132515;27;20483;-73
2021/12/13 06:47:01;;;;;;;41.25;23.00;;;9.50;99.90;;;;;;5132717;27;20042;-74
2021/12/13 06:49:35;;;;;;;45.15;23.30;;;9.50;99.90;;;;;;5133806;27;20380;-73
2021/12/13 06:52:11;;;;;;;51.72;23.30;;;9.50;99.90;;;;;;5133270;27;20173;-73
2021/12/13 06:54:49;;;;;;;42.65;23.25;;;9.50;99.90;;;;;;5132810;27;20039;-73
2021/12/13 06:57:34;;;;;;;42.17;23.00;;;9.50;99.90;;;;;;5133781;27;20043;-73
2021/12/13 07:00:13;;;;;;;45.97;22.80;;;9.50;99.90;;;;;;5133749;27;20059;-73
2021/12/13 07:02:45;;;;;;;48.30;24.83;;;9.50;99.90;;;;;;5131896;27;20047;-73
2021/12/13 07:05:36;;;;;;;42.10;23.17;;;9.50;99.90;;;;;;5132408;27;20043;-74
2021/12/13 07:08:23;;;;;;;42.97;22.85;;;9.50;99.90;;;;;;5132385;27;20054;-73
2021/12/13 07:10:52;;;;;;;44.38;24.60;;;9.50;99.90;;;;;;5132426;27;20418;-73
2021/12/13 07:13:30;;;;;;;43.97;23.17;;;9.50;99.90;;;;;;5113941;27;20046;-72
2021/12/13 07:16:04;;;;;;;45.85;24.90;;;9.50;99.90;;;;;;5131637;27;20039;-73
2021/12/13 07:18:46;;;;;;;42.28;24.02;;;9.50;99.90;;;;;;5131835;27;20046;-73
2021/12/13 07:21:17;;;;;;;45.53;23.55;;;9.50;99.90;;;;;;5131802;27;20031;-73
2021/12/13 07:24:05;;;;;;;40.78;24.33;;;9.50;99.90;;;;;;5120720;27;20035;-73
2021/12/13 07:26:43;;;;;;;41.78;23.60;;;9.50;99.90;;;;;;5132042;27;20490;-73
2021/12/13 07:29:22;;;;;;;35.90;22.25;;;9.50;99.90;;;;;;5131618;27;20051;-73
2021/12/13 07:32:18;;;;;;;40.90;22.27;;;9.50;99.90;;;;;;5131312;27;20039;-73
2021/12/13 07:35:06;;;;;;;41.25;24.23;;;9.50;99.90;;;;;;5132934;27;20522;-74
2021/12/13 07:38:00;;;;;;;44.35;23.73;;;9.50;99.90;;;;;;5131517;27;20498;-73
2021/12/13 07:40:33;;;;;;;41.58;22.90;;;9.40;99.90;;;;;;5132955;27;20047;-73
2021/12/13 07:43:08;;;;;;;45.58;24.05;;;9.40;99.90;;;;;;5132584;27;20081;-73
2021/12/13 07:45:58;;;;;;;40.80;24.05;;;9.40;99.90;;;;;;5132643;27;20066;-73
2021/12/13 07:48:32;;;;;;;45.05;24.05;;;9.40;99.90;;;;;;5132989;27;20066;-73
2021/12/13 07:51:22;;;;;;;42.13;24.85;;;9.40;99.90;;;;;;5131276;27;20517;-72
2021/12/13 07:53:53;;;;;;;43.38;24.27;;;9.40;99.90;;;;;;5131309;27;20411;-73
2021/12/13 07:56:28;;;;;;;42.88;24.17;;;9.40;99.90;;;;;;5131992;27;20280;-74
2021/12/13 07:59:06;;;;;;;39.30;23.40;;;9.40;99.90;;;;;;5128993;27;20066;-73
2021/12/13 08:01:35;;;;;;;44.28;24.02;;;9.40;99.90;;;;;;5127672;27;20081;-74
2021/12/13 08:04:11;;;;;;;42.92;23.27;;;9.40;99.90;;;;;;5128502;27;20079;-73
2021/12/13 08:06:47;;;;;;;46.42;24.60;;;9.40;99.90;;;;;;5129783;27;20043;-73
2021/12/13 08:09:17;;;;;;;41.50;23.42;;;9.40;99.90;;;;;;5131130;27;20047;-74
2021/12/13 08:11:57;;;;;;;47.33;25.35;;;9.40;99.90;;;;;;5130240;28;20134;-74
2021/12/13 08:14:36;;;;;;;43.53;24.27;;;9.40;99.90;;;;;;5130526;28;20483;-73
2021/12/13 08:17:35;;;;;;;44.60;24.35;;;9.40;99.90;;;;;;5131564;27;20035;-73
2021/12/13 08:20:10;;;;;;;39.42;22.70;;;9.40;99.90;;;;;;5131114;27;20039;-73
2021/12/13 08:22:42;;;;;;;40.03;23.33;;;9.40;99.90;;;;;;5112754;28;20123;-73
2021/12/13 08:25:13;;;;;;;;;;;9.40;99.90;;;;;;5131695;28;20495;-73
2021/12/13 08:27:42;;;;;;;40.00;21.75;;;9.40;99.90;;;;;;5130753;28;19919;-73
2021/12/13 08:30:18;;;;;;;43.15;23.50;;;9.40;99.90;;;;;;5130980;28;20506;-73
2021/12/13 08:33:03;;;;;;;38.58;23.35;;;9.40;99.90;;;;;;5130431;28;20054;-73
2021/12/13 08:35:45;;;;;;;40.00;22.40;;;9.40;99.90;;;;;;5131188;27;20074;-73
2021/12/13 08:38:22;;;;;;;42.92;23.65;;;9.40;99.90;;;;;;5134986;27;20043;-74
2021/12/13 08:40:48;;;;;;;40.95;23.48;;;9.40;99.90;;;;;;5117939;27;20043;-75
2021/12/13 08:43:14;;;;;;;39.25;23.60;;;9.40;99.90;;;;;;5134452;27;20487;-74
2021/12/13 08:45:41;;;;;;;41.28;22.52;;;9.40;99.90;;;;;;5134932;27;20066;-74
2021/12/13 08:48:20;;;;;;;41.55;23.73;;;9.40;99.90;;;;;;5134864;27;20078;-73
2021/12/13 08:50:57;;;;;;;40.13;24.13;;;9.40;99.90;;;;;;5134725;27;20039;-73
2021/12/13 08:53:31;;;;;;;43.53;25.02;;;9.80;99.90;;;;;;5117538;27;20454;-73
2021/12/13 08:56:04;;;;;;;39.90;21.25;;;10.10;99.90;;;;;;5134674;27;20054;-74
2021/12/13 08:58:30;;;;;;;38.33;21.73;;;9.80;99.90;;;;;;5134950;27;20035;-74
2021/12/13 09:01:10;;;;;;;39.17;21.92;;;9.70;99.90;;;;;;5117851;27;20043;-74
2021/12/13 09:03:41;;;;;;;35.60;20.48;;;9.80;99.90;;;;;;5134276;27;20043;-75
2021/12/13 09:06:16;;;;;;;40.60;21.60;;;9.70;99.90;;;;;;5134527;27;20126;-74
2021/12/13 09:08:52;;;;;;;38.30;22.88;;;9.60;99.90;;;;;;5115462;27;20521;-73
2021/12/13 09:11:25;;;;;;;43.92;18.52;;;9.60;99.90;;;;;;5111159;28;20101;-75
2021/12/13 09:14:13;;;;;;;37.97;21.90;;;9.70;99.90;;;;;;5111491;28;20047;-75
2021/12/13 09:17:06;;;;;;;36.38;20.95;;;9.80;99.90;;;;;;5096294;28;20043;-72
2021/12/13 09:19:40;;;;;;;34.80;19.95;;;9.70;99.90;;;;;;5114063;28;20040;-75
2021/12/13 09:22:26;;;;;;;29.85;16.75;;;9.70;99.90;;;;;;5113298;28;20040;-78
2021/12/13 09:25:09;;;;;;;41.83;20.92;;;9.60;99.90;;;;;;5113710;28;20507;-76
2021/12/13 09:27:41;;;;;;;32.95;17.77;;;9.60;99.90;;;;;;5099374;28;20076;-75
2021/12/13 09:30:06;;;;;;;35.72;22.30;;;9.60;99.90;;;;;;5097413;28;20536;-73
2021/12/13 09:32:46;;;;;;;35.78;21.15;;;9.60;99.90;;;;;;5100716;28;20040;-74
2021/12/13 09:35:33;;;;;;;32.40;19.63;;;9.60;99.90;;;;;;5114435;28;20058;-73
2021/12/13 09:38:20;;;;;;;40.15;21.02;;;9.60;99.90;;;;;;5116676;28;20043;-74
2021/12/13 09:41:05;;;;;;;37.28;20.00;;;9.60;99.90;;;;;;5117134;28;20035;-72
2021/12/13 09:43:46;;;;;;;33.78;19.83;;;9.60;99.90;;;;;;5115864;28;20046;-73
2021/12/13 09:46:15;;;;;;;37.83;19.80;;;9.60;99.90;;;;;;5096374;28;20129;-74
2021/12/13 09:48:47;;;;;;;34.95;18.73;;;9.60;99.90;;;;;;5112115;28;20039;-73
2021/12/13 09:51:20;;;;;;;37.22;20.35;;;9.70;99.90;;;;;;5113140;28;20040;-74
2021/12/13 09:53:50;;;;;;;30.40;18.10;;;9.70;99.90;;;;;;5113052;28;20039;-73
2021/12/13 09:56:21;;;;;;;33.92;19.33;;;9.80;99.90;;;;;;5096070;28;20514;-73
2021/12/13 09:58:55;;;;;;;32.78;18.65;;;9.80;99.90;;;;;;5112863;28;20043;-72
2021/12/13 10:01:28;;;;;;;37.80;19.23;;;9.70;99.90;;;;;;5095954;28;20044;-76
2021/12/13 10:04:25;;;;;;;36.00;19.27;;;9.70;99.90;;;;;;5112745;28;20070;-77
2021/12/13 10:07:04;;;;;;;36.90;19.05;;;9.70;99.90;;;;;;5095796;28;20040;-77
2021/12/13 10:09:49;;;;;;;36.95;19.83;;;9.70;99.90;;;;;;5112555;28;20048;-77
2021/12/13 10:12:23;;;;;;;31.35;18.63;;;9.70;99.90;;;;;;5112545;28;20444;-76
2021/12/13 10:14:56;;;;;;;32.47;18.45;;;9.70;99.90;;;;;;5095667;28;20164;-77
2021/12/13 10:17:27;;;;;;;32.70;18.08;;;9.70;99.90;;;;;;5095306;28;20044;-77
2021/12/13 10:19:59;;;;;;;29.02;18.65;;;9.70;99.90;;;;;;5095580;28;20046;-76
2021/12/13 10:22:27;;;;;;;32.97;18.75;;;9.70;99.90;;;;;;5112378;28;20028;-76
2021/12/13 10:24:58;;;;;;;33.17;17.77;;;9.70;99.90;;;;;;5112522;28;20122;-74
2021/12/13 10:27:24;;;;;;;34.15;17.63;;;9.80;99.90;;;;;;5112334;28;20053;-75
2021/12/13 10:29:54;;;;;;;29.38;17.67;;;9.80;99.90;;;;;;5112690;28;20036;-77
2021/12/13 10:32:24;;;;;;;29.67;18.13;;;9.80;99.90;;;;;;5111545;28;20515;-76
2021/12/13 10:34:54;;;;;;;29.63;17.48;;;9.80;99.90;;;;;;5112320;28;20050;-75
2021/12/13 10:37:32;;;;;;;35.30;18.30;;;9.80;99.90;;;;;;5112504;28;20066;-75
2021/12/13 10:40:05;;;;;;;28.17;17.10;;;9.80;99.90;;;;;;5112032;28;20042;-76
2021/12/13 10:42:36;;;;;;;28.30;16.90;;;9.80;99.90;;;;;;5112013;28;20069;-75
2021/12/13 10:45:06;;;;;;;34.78;16.73;;;9.80;99.90;;;;;;5111909;28;20089;-75
2021/12/13 10:47:36;;;;;;;26.27;16.60;;;9.80;99.90;;;;;;5112104;28;20348;-75
2021/12/13 10:50:06;;;;;;;33.10;17.65;;;9.70;99.90;;;;;;5112141;28;20646;-75
2021/12/13 10:52:36;;;;;;;27.05;16.83;;;9.70;99.90;;;;;;5111746;28;20452;-74
2021/12/13 10:55:27;;;;;;;30.40;16.08;;;9.70;99.90;;;;;;5111656;28;20035;-74
2021/12/13 10:57:54;;;;;;;29.48;17.63;;;9.70;99.90;;;;;;5094543;28;20031;-75
2021/12/13 11:00:28;;;;;;;29.95;16.83;;;9.70;99.90;;;;;;5111573;28;20092;-75
2021/12/13 11:03:02;;;;;;;35.80;16.77;;;9.70;99.90;;;;;;5111157;28;20087;-75
2021/12/13 11:05:28;;;;;;;28.27;17.17;;;9.70;99.90;;;;;;5111578;28;20051;-75
2021/12/13 11:07:59;;;;;;;30.98;16.38;;;9.80;99.90;;;;;;5111340;28;20043;-75
2021/12/13 11:10:35;;;;;;;28.77;16.42;;;9.80;99.90;;;;;;5111476;28;20554;-73
2021/12/13 11:13:02;;;;;;;30.33;16.73;;;9.80;99.90;;;;;;5077977;28;20040;-76
2021/12/13 11:15:33;;;;;;;30.17;16.58;;;9.70;99.90;;;;;;5111569;28;20183;-76
2021/12/13 11:18:03;;;;;;;36.50;16.50;;;9.80;99.90;;;;;;5111722;28;20403;-73
2021/12/13 11:20:47;;;;;;;28.38;16.08;;;9.80;99.90;;;;;;5111782;28;20483;-75
2021/12/13 11:23:16;;;;;;;25.77;15.65;;;9.70;99.90;;;;;;5094219;28;20053;-74
2021/12/13 11:25:51;;;;;;;30.85;15.57;;;9.80;99.90;;;;;;5111325;28;20514;-73
2021/12/13 11:28:17;;;;;;;26.88;15.43;;;9.70;99.90;;;;;;5111297;28;20437;-73
2021/12/13 11:30:45;;;;;;;31.40;16.38;;;9.70;99.90;;;;;;5110859;28;20054;-74
2021/12/13 11:33:22;;;;;;;29.67;16.63;;;9.70;99.90;;;;;;5110974;28;20218;-75
2021/12/13 11:36:38;;;;;;;28.02;16.52;;;9.70;99.90;;;;;;5111473;28;20104;-74
2021/12/13 11:39:42;;;;;;;25.48;15.77;;;9.80;99.90;;;;;;5053744;28;20459;-73
2021/12/13 11:42:45;;;;;;;28.38;16.02;;;9.70;99.90;;;;;;5114509;28;20122;-73
2021/12/13 11:45:36;;;;;;;27.45;15.57;;;9.80;99.90;;;;;;5111658;28;20054;-73
2021/12/13 11:48:40;;;;;;;27.73;16.23;;;9.80;99.90;;;;;;5110907;28;20096;-74
2021/12/13 11:51:47;;;;;;;25.52;15.25;;;9.80;99.90;;;;;;5110813;28;20035;-75
2021/12/13 11:54:58;;;;;;;25.38;16.05;;;9.80;99.90;;;;;;5093828;28;20056;-73
2021/12/13 11:57:48;;;;;;;30.92;17.45;;;9.70;99.90;;;;;;5110640;28;20036;-74
2021/12/13 12:00:42;;;;;;;30.48;16.80;;;9.70;99.90;;;;;;5110629;28;20043;-74
2021/12/13 12:03:29;;;;;;;30.25;16.55;;;9.80;99.90;;;;;;5111724;28;20035;-73
2021/12/13 12:06:31;;;;;;;26.30;16.65;;;9.80;99.90;;;;;;5093502;28;20039;-74
2021/12/13 12:09:21;;;;;;;30.55;16.13;;;9.70;99.90;;;;;;5110702;28;20441;-76
2021/12/13 12:12:16;;;;;;;28.75;16.42;;;9.80;99.90;;;;;;5109404;28;20499;-74
2021/12/13 12:14:42;;;;;;;28.65;15.85;;;9.70;99.90;;;;;;5110454;28;20051;-74
2021/12/13 12:17:08;;;;;;;31.08;16.58;;;9.70;99.90;;;;;;5110304;28;20542;-73
2021/12/13 12:19:40;;;;;;;30.58;16.85;;;9.80;99.90;;;;;;5093488;28;20044;-74
2021/12/13 12:22:16;;;;;;;32.15;16.58;;;9.70;99.90;;;;;;5093335;28;20063;-74
2021/12/13 12:24:57;;;;;;;30.80;16.17;;;9.80;99.90;;;;;;5110492;28;20046;-73
2021/12/13 12:27:30;;;;;;;28.00;16.60;;;9.80;99.90;;;;;;5110247;28;20043;-74
2021/12/13 12:29:59;;;;;;;28.33;16.80;;;9.70;99.90;;;;;;5110658;28;20123;-74
2021/12/13 12:32:33;;;;;;;29.48;15.85;;;9.70;99.90;;;;;;5110087;28;20550;-75
2021/12/13 12:35:02;;;;;;;31.00;16.52;;;9.70;99.90;;;;;;5111622;28;20051;-74
2021/12/13 12:37:27;;;;;;;27.58;15.85;;;9.80;99.90;;;;;;5111322;28;20039;-74
2021/12/13 12:40:18;;;;;;;29.92;16.98;;;9.80;99.90;;;;;;5111574;28;20035;-73
2021/12/13 12:42:49;;;;;;;30.50;16.60;;;9.80;99.90;;;;;;5109841;28;20046;-76
2021/12/13 12:45:21;;;;;;;35.38;16.50;;;9.80;99.90;;;;;;5111427;28;20592;-73
2021/12/13 12:47:47;;;;;;;28.00;16.88;;;9.80;99.90;;;;;;5111277;28;20391;-74
2021/12/13 12:50:33;;;;;;;29.88;16.45;;;9.90;99.90;;;;;;5111565;28;20035;-74
2021/12/13 12:53:12;;;;;;;28.45;16.05;;;9.90;99.90;;;;;;5109951;28;20050;-73
2021/12/13 12:55:53;;;;;;;29.50;15.85;;;9.80;99.90;;;;;;5110148;28;20070;-73
2021/12/13 12:58:50;;;;;;;27.27;16.50;;;9.80;99.90;;;;;;5110182;28;20058;-74
2021/12/13 13:01:33;;;;;;;27.40;15.75;;;9.80;99.90;;;;;;5109953;28;20058;-74
2021/12/13 13:04:09;;;;;;;31.67;16.15;;;9.80;99.90;;;;;;5109808;28;20043;-75
2021/12/13 13:06:36;;;;;;;23.88;14.18;;;9.90;99.90;;;;;;5093098;28;20047;-75
2021/12/13 13:09:09;;;;;;;28.38;15.23;;;9.80;99.90;;;;;;5109885;28;20521;-75
2021/12/13 13:11:35;;;;;;;28.33;17.25;;;9.80;99.90;;;;;;5093033;28;20075;-78
2021/12/13 13:14:10;;;;;;;28.85;15.80;;;9.90;99.90;;;;;;5109362;28;20047;-76
2021/12/13 13:16:41;;;;;;;25.83;15.43;;;9.80;99.90;;;;;;5109853;28;20040;-76
2021/12/13 13:19:10;;;;;;;24.30;15.48;;;9.80;99.90;;;;;;5111412;28;20539;-72
2021/12/13 13:21:44;;;;;;;25.25;14.45;;;9.80;99.90;;;;;;5110467;28;20092;-76
2021/12/13 13:24:12;;;;;;;25.70;14.85;;;9.80;99.90;;;;;;5113895;28;20092;-76
2021/12/13 13:26:42;;;;;;;25.05;15.15;;;9.90;99.90;;;;;;5113343;28;20120;-78
2021/12/13 13:29:12;;;;;;;29.25;16.83;;;10.00;99.90;;;;;;5096652;28;20438;-74